Terminal Aerodrome Forecast
Issued by NWS

Home | Current Version | Previous Version | Text Only | Print | Product List | Glossary On
Versions: 1 2 3 4 5 6 7 8 9 10 11 12 13 14 15 16 17 18 19 20
903
FTUS41 KBTV 302331
TAFMPV
TAF
KMPV 302331Z 0100/0124 VRB03KT P6SM OVC150
     FM010800 00000KT P6SM VCSH OVC080
     FM011600 14006KT P6SM VCSH OVC080=

USA.gov is the U.S. government's official web portal to all federal, state and local government web resources and services.